Archival Weather

Snohomish County (Paine Fld)

Everett, Washington (KPAE)

Report from: Tuesday, November 7, 2023 2:53 AM PST
Current time: Sunday, June 16, 2024 11:22 PM PDT

Current weather – Weather history – Daily summaries
Weather forecast

Present weatherLight rain
Temperature10.0°C (50.0°F)
Wind chill8.0°C (46.3°F)
Dew point8.3°C (46.9°F)
Winds 8 kts (4.1 m/s, 9.2 mph) South-Southwest (210°)
Visibility7 mi. (11.3 km)
Clouds Ceiling: Broken clouds 1,200 ft. (366 m)
Broken clouds 1,900 ft. (579 m)
Overcast 5,000 ft. (1,524 m)
Altimeter29.78 in.Hg (1008 mB)
Precipitiation0.04 in. (1 mm)
Relative humidity89 %
Density altitude-280 ft. (-85 m)
Sea-level pressure100.9 kPa (1009 mB, 29.78 in.Hg)
Remarks Fully automated report
Automated weather observing station with precipitation discriminator
Flight conditions Marginal Visual Meteorological Conditions
Raw dataKPAE 071053Z AUTO 21008KT 7SM -RA BKN012 BKN019 OVC050 10/08 A2978 RMK AO2 SLP085 P0004 T01000083
An error has occurred. This application may no longer respond until reloaded. Reload 🗙